KDHN/DHN METAR and TAF weather

Enter ICAO airport designator
Station Type Date Time Source
KDHN METAR 2019/06/17 05:53 UTC NOAA

KDHN 170553Z AUTO 28004KT 10SM FEW025 SCT060 26/21 A3007 RMK AO2 SLP174 T02560211 10317 20250 50007


Station Type Date Time Source
KDHN Decoded METAR 2019/06/17 05:53 UTC NOAA

DOTHAN AIRPORT, AL, United States (KDHN) 31-19N 085-27W 113M
Jun 17, 2019 - 01:53 AM EDT / 2019.06.17 0553 UTC
Wind: from the W (280 degrees) at 5 MPH (4 KT):0
Visibility: 10 mile(s):0
Sky conditions: partly cloudy
Temperature: 78.1 F (25.6 C)
Dew Point: 70.0 F (21.1 C)
Relative Humidity: 76%
Pressure (altimeter): 30.07 in. Hg (1018 hPa)
Pressure tendency: 0.02 inches (0.7 hPa) higher than three hours ago
ob: KDHN 170553Z AUTO 28004KT 10SM FEW025 SCT060 26/21 A3007 RMK AO2 SLP174 T02560211 10317 20250 50007
cycle: 6

Station Type Date Time Source
KDHN TAF 2019/06/17 06:24 UTC NOAA

TAF KDHN 170520Z 1706/1806 22006KT P6SM SCT250
FM172000 16008KT P6SM VCTS BKN050CB BKN250
FM180000 19005KT P6SM BKN100

Example: see airport list